Silas, Texas
Current Conditions -  °F | °C
As of 11:55 PM on Tuesday 21 Oct 2014 (Local Time) from KOCH Reporting Station
Clear Clear  
Wind Chill: 59°   Ceiling: Unl
Heat Index: 59°   Visibility: 5mi
Dew Point: 55°   Wind: 0mph
Humidity: 88%   Direction: NA
Pressure: 30.07"   Gusts: NA
Location:  31.8636°N, 94.3909°W
Report Text: KOCH 220455Z AUTO 00000KT 5SM CLR 15/13 A3007 RMK AO1
Loading
Personal Weather Stations






























Interactive Weather Map
Tropical Storm Tracking
New forecast layout! Learn more

10-Day Weather Forecast

Advertisements
Track Severe Weather on mobile